Time;durP1;ratioP1;P1;durP2;ratioP2;P2;SDS_P1;SDS_P2;PMS_P1;PMS_P2;Temp;Humidity;BMP_temperature;BMP_pressure;BME280_temperature;BME280_humidity;BME280_pressure;Samples;Min_cycle;Max_cycle;Signal;HPM_P1;HPM_P2
2021/07/02 00:00:18;;;;;;;4.20;2.22;;;14.80;75.90;;;;;;4960865;28;95476;-46
2021/07/02 00:02:50;;;;;;;2.40;2.20;;;14.80;75.90;;;;;;4964716;28;97231;-48
2021/07/02 00:05:20;;;;;;;2.10;1.90;;;14.70;75.80;;;;;;4956085;28;95849;-47
2021/07/02 00:07:51;;;;;;;2.38;2.15;;;14.80;75.80;;;;;;4965692;28;96178;-47
2021/07/02 00:10:22;;;;;;;2.58;1.70;;;14.80;75.80;;;;;;4930003;28;96434;-46
2021/07/02 00:12:54;;;;;;;1.95;1.80;;;14.80;76.00;;;;;;4958094;28;96011;-46
2021/07/02 00:15:25;;;;;;;2.03;1.90;;;14.90;76.20;;;;;;4943040;28;96645;-45
2021/07/02 00:17:57;;;;;;;2.08;1.92;;;15.00;76.30;;;;;;4962765;28;102504;-46
2021/07/02 00:20:28;;;;;;;;;;;15.10;76.70;;;;;;4954590;28;95953;-45
2021/07/02 00:22:59;;;;;;;2.97;1.85;;;15.20;76.70;;;;;;4956662;28;95549;-47
2021/07/02 00:25:30;;;;;;;1.80;1.48;;;15.30;76.50;;;;;;4948847;28;96540;-44
2021/07/02 00:28:01;;;;;;;3.35;1.88;;;15.40;76.50;;;;;;4949837;28;95768;-46
2021/07/02 00:30:33;;;;;;;3.22;1.88;;;15.50;76.50;;;;;;4955950;28;95474;-48
2021/07/02 00:33:05;;;;;;;3.90;2.15;;;15.60;76.50;;;;;;4947922;28;95739;-47
2021/07/02 00:35:35;;;;;;;2.65;1.70;;;15.70;76.10;;;;;;4955621;28;95869;-45
2021/07/02 00:38:07;;;;;;;2.03;1.83;;;15.70;76.20;;;;;;4965625;28;98209;-44
2021/07/02 00:40:39;;;;;;;1.92;1.67;;;15.80;76.20;;;;;;4953879;28;95452;-45
2021/07/02 00:43:11;;;;;;;3.28;1.90;;;15.80;76.20;;;;;;4959344;28;96042;-43
2021/07/02 00:45:41;;;;;;;2.08;1.77;;;15.90;76.20;;;;;;4943842;28;96505;-47
2021/07/02 00:48:13;;;;;;;1.85;1.75;;;16.00;76.20;;;;;;4950546;28;95974;-45
2021/07/02 00:50:45;;;;;;;3.22;1.77;;;16.00;76.10;;;;;;4960568;28;95783;-47
2021/07/02 00:53:16;;;;;;;2.53;1.30;;;16.10;76.00;;;;;;4963636;28;95621;-46
2021/07/02 00:55:49;;;;;;;2.75;1.98;;;16.10;75.90;;;;;;4958384;28;98525;-45
2021/07/02 00:58:21;;;;;;;1.58;1.48;;;16.20;76.60;;;;;;4964747;28;95973;-48
2021/07/02 01:00:51;;;;;;;1.55;1.45;;;16.30;75.60;;;;;;4956929;28;95313;-46
2021/07/02 01:03:23;;;;;;;1.50;1.40;;;16.30;75.60;;;;;;4965107;28;95884;-46
2021/07/02 01:05:55;;;;;;;2.55;1.80;;;16.30;75.50;;;;;;4957165;28;96070;-46
2021/07/02 01:08:27;;;;;;;1.77;1.23;;;16.40;75.50;;;;;;4959819;28;95949;-44
2021/07/02 01:10:58;;;;;;;1.80;1.70;;;16.40;75.50;;;;;;4960372;28;96028;-45
2021/07/02 01:13:29;;;;;;;1.70;1.60;;;16.50;75.60;;;;;;4959159;28;96367;-46
2021/07/02 01:16:01;;;;;;;;;;;16.60;75.60;;;;;;4951878;28;98302;-47
2021/07/02 01:18:32;;;;;;;1.70;1.40;;;16.60;75.40;;;;;;4961816;28;96163;-45
2021/07/02 01:21:03;;;;;;;1.10;1.00;;;16.70;75.30;;;;;;4949906;28;95658;-45
2021/07/02 01:23:34;;;;;;;1.27;1.17;;;16.80;75.20;;;;;;4962057;28;95942;-45
2021/07/02 01:26:05;;;;;;;1.10;1.00;;;16.80;75.00;;;;;;4947216;28;95816;-47
2021/07/02 01:28:39;;;;;;;1.50;1.20;;;16.90;75.00;;;;;;4965039;28;97302;-46
2021/07/02 01:31:11;;;;;;;1.42;1.17;;;17.00;74.90;;;;;;4952896;28;95646;-44
2021/07/02 01:33:44;;;;;;;1.25;1.05;;;17.00;74.80;;;;;;4956196;28;96106;-44
2021/07/02 01:36:21;;;;;;;1.63;1.20;;;17.00;74.80;;;;;;4961381;28;98198;-44
2021/07/02 01:38:58;;;;;;;1.38;1.25;;;17.10;74.70;;;;;;4954375;28;104174;-46
2021/07/02 01:41:30;;;;;;;1.40;1.30;;;17.10;74.60;;;;;;4960227;28;95907;-43
2021/07/02 01:44:04;;;;;;;1.85;1.20;;;17.10;74.60;;;;;;4961948;28;100481;-47
2021/07/02 01:46:35;;;;;;;0.98;0.98;;;17.20;74.70;;;;;;4960780;28;98401;-45
2021/07/02 01:49:07;;;;;;;1.13;1.02;;;17.20;74.70;;;;;;4954133;28;98636;-44
2021/07/02 01:51:37;;;;;;;1.08;1.02;;;17.30;74.80;;;;;;4959019;28;95809;-46
2021/07/02 01:54:09;;;;;;;0.63;0.63;;;17.40;74.70;;;;;;4947403;28;101193;-45
2021/07/02 01:56:47;;;;;;;6.35;1.35;;;17.40;74.70;;;;;;4962404;28;98051;-45
2021/07/02 01:59:21;;;;;;;2.33;1.23;;;17.50;74.40;;;;;;4947544;28;95983;-46
2021/07/02 02:01:59;;;;;;;1.08;0.90;;;17.50;74.70;;;;;;4947195;28;98226;-45
2021/07/02 02:04:30;;;;;;;;;;;17.60;74.80;;;;;;4963253;28;95330;-46
2021/07/02 02:07:00;;;;;;;2.42;1.02;;;17.70;74.80;;;;;;4965781;28;96680;-45
2021/07/02 02:09:31;;;;;;;1.70;1.10;;;17.70;74.60;;;;;;4943967;28;98065;-46
2021/07/02 02:12:03;;;;;;;0.88;0.82;;;17.80;74.50;;;;;;4951408;28;95745;-45
2021/07/02 02:14:41;;;;;;;1.30;1.10;;;17.80;74.40;;;;;;4961073;28;96142;-47
2021/07/02 02:17:14;;;;;;;1.63;0.73;;;17.90;74.60;;;;;;4958310;28;98040;-48
2021/07/02 02:19:49;;;;;;;1.48;1.00;;;17.90;74.60;;;;;;4955027;28;95703;-45
2021/07/02 02:22:20;;;;;;;1.58;1.20;;;18.00;74.90;;;;;;4945449;28;95959;-46
2021/07/02 02:24:51;;;;;;;1.17;1.00;;;18.00;74.40;;;;;;4948901;28;95873;-56
2021/07/02 02:27:23;;;;;;;0.98;0.90;;;18.10;74.40;;;;;;4948803;28;96016;-55
2021/07/02 02:29:57;;;;;;;2.88;1.27;;;18.10;74.40;;;;;;4959900;28;96007;-45
2021/07/02 02:32:30;;;;;;;1.38;1.27;;;18.20;74.30;;;;;;4953501;28;97725;-52
2021/07/02 02:35:01;;;;;;;0.75;0.75;;;18.20;74.20;;;;;;4946818;28;96148;-46
2021/07/02 02:37:34;;;;;;;3.15;0.90;;;18.30;74.10;;;;;;4956599;28;98509;-46
2021/07/02 02:40:08;;;;;;;1.30;0.70;;;18.30;73.90;;;;;;4958504;28;95743;-48
2021/07/02 02:42:40;;;;;;;0.90;0.90;;;18.40;73.70;;;;;;4963101;28;95937;-54
2021/07/02 02:45:11;;;;;;;1.00;0.90;;;18.40;73.50;;;;;;4952350;28;95748;-57
2021/07/02 02:47:43;;;;;;;1.05;0.95;;;18.50;73.60;;;;;;4952512;28;98001;-57
2021/07/02 02:50:14;;;;;;;0.90;0.80;;;18.50;73.40;;;;;;4957516;28;96161;-46
2021/07/02 02:52:46;;;;;;;1.10;1.00;;;18.50;73.30;;;;;;4957881;28;95991;-56
2021/07/02 02:55:17;;;;;;;0.75;0.75;;;18.60;73.30;;;;;;4949606;28;95689;-48
2021/07/02 02:57:47;;;;;;;2.17;1.50;;;18.60;73.30;;;;;;4950304;28;96592;-55
2021/07/02 03:00:18;;;;;;;2.20;1.27;;;18.50;69.20;;;;;;4944088;28;95970;-56
2021/07/02 03:02:50;;;;;;;1.27;1.17;;;18.20;71.20;;;;;;4926760;28;97052;-56
2021/07/02 03:05:35;;;;;;;1.42;1.33;;;18.30;71.80;;;;;;4930245;28;96044;-57
2021/07/02 03:08:08;;;;;;;1.83;1.30;;;18.40;71.80;;;;;;4945816;28;96681;-56
2021/07/02 03:10:48;;;;;;;1.63;1.45;;;18.50;72.00;;;;;;4944493;28;95816;-57
2021/07/02 03:13:19;;;;;;;2.60;1.70;;;18.50;71.90;;;;;;4937472;28;96251;-53
2021/07/02 03:15:50;;;;;;;;;;;18.60;72.00;;;;;;4933525;28;95419;-55
2021/07/02 03:18:21;;;;;;;2.13;1.38;;;18.60;71.90;;;;;;4950829;28;96594;-57
2021/07/02 03:20:53;;;;;;;1.42;1.05;;;18.70;72.10;;;;;;4943613;28;95927;-55
2021/07/02 03:23:23;;;;;;;1.30;1.20;;;18.70;72.10;;;;;;4946207;28;95346;-57
2021/07/02 03:25:54;;;;;;;1.25;1.10;;;18.70;72.20;;;;;;4948879;28;95458;-57
2021/07/02 03:28:26;;;;;;;1.23;1.13;;;18.70;72.20;;;;;;4954784;28;95851;-52
2021/07/02 03:30:58;;;;;;;2.72;1.27;;;18.70;72.20;;;;;;4941651;28;97741;-57
2021/07/02 03:33:32;;;;;;;2.97;1.17;;;18.70;72.20;;;;;;4935522;28;95955;-58
2021/07/02 03:36:04;;;;;;;1.70;1.15;;;18.80;72.20;;;;;;4931042;28;95913;-56
2021/07/02 03:38:36;;;;;;;1.65;1.10;;;18.80;72.20;;;;;;4928349;28;95827;-56
2021/07/02 03:41:09;;;;;;;1.48;1.38;;;18.80;72.20;;;;;;4927455;28;95707;-57
2021/07/02 03:43:41;;;;;;;1.02;0.93;;;18.90;72.30;;;;;;4934509;28;95912;-56
2021/07/02 03:46:16;;;;;;;0.95;0.90;;;18.90;72.40;;;;;;4931705;28;96214;-49
2021/07/02 03:48:49;;;;;;;1.15;1.05;;;18.90;72.40;;;;;;4959123;28;96960;-55
2021/07/02 03:51:20;;;;;;;1.20;1.10;;;18.90;72.40;;;;;;4961913;28;95841;-53
2021/07/02 03:53:50;;;;;;;1.07;1.00;;;19.00;72.10;;;;;;4954678;28;96548;-54
2021/07/02 03:56:20;;;;;;;2.63;1.25;;;19.20;71.90;;;;;;4960767;28;95693;-57
2021/07/02 03:58:50;;;;;;;1.20;1.10;;;19.40;71.50;;;;;;4948612;28;96146;-53
2021/07/02 04:01:20;;;;;;;2.08;1.05;;;19.50;71.00;;;;;;4956162;28;95653;-51
2021/07/02 04:03:51;;;;;;;1.10;0.90;;;19.60;70.80;;;;;;4959762;28;95798;-53
2021/07/02 04:06:22;;;;;;;1.73;1.33;;;19.80;70.50;;;;;;4961164;28;95722;-52
2021/07/02 04:08:53;;;;;;;;;;;19.90;70.30;;;;;;4956722;28;96461;-52
2021/07/02 04:11:23;;;;;;;1.00;0.88;;;20.00;70.30;;;;;;4957255;28;97191;-51
2021/07/02 04:13:54;;;;;;;1.00;0.90;;;20.10;70.40;;;;;;4947675;28;96011;-52
2021/07/02 04:16:28;;;;;;;1.15;1.05;;;20.20;70.40;;;;;;4954405;28;95825;-52
2021/07/02 04:19:00;;;;;;;0.70;0.70;;;20.30;70.10;;;;;;4960347;28;96532;-52
2021/07/02 04:21:30;;;;;;;1.15;0.88;;;20.40;70.00;;;;;;4965245;28;95483;-51
2021/07/02 04:24:04;;;;;;;1.05;0.98;;;20.50;69.70;;;;;;4960297;28;95320;-52
2021/07/02 04:26:34;;;;;;;0.80;0.80;;;20.60;69.50;;;;;;4961809;28;97423;-51
2021/07/02 04:29:06;;;;;;;1.15;1.08;;;20.70;69.50;;;;;;4958467;28;95899;-49
2021/07/02 04:31:39;;;;;;;1.65;1.10;;;20.80;69.40;;;;;;4959557;28;96606;-53
2021/07/02 04:34:10;;;;;;;1.05;1.00;;;20.80;67.80;;;;;;4959919;28;95687;-58
2021/07/02 04:36:41;;;;;;;1.40;1.30;;;20.90;68.20;;;;;;4964357;28;95975;-55
2021/07/02 04:39:13;;;;;;;0.95;0.90;;;20.50;64.70;;;;;;4960364;28;96498;-52
2021/07/02 04:41:44;;;;;;;1.83;0.88;;;20.30;65.60;;;;;;4964204;28;95789;-54
2021/07/02 04:44:15;;;;;;;1.38;1.27;;;20.20;66.30;;;;;;4956601;28;104972;-51
2021/07/02 04:46:46;;;;;;;;;;;20.10;66.40;;;;;;4957114;28;96269;-55
2021/07/02 04:49:17;;;;;;;2.23;1.63;;;20.00;66.60;;;;;;4961079;28;97388;-54
2021/07/02 04:51:48;;;;;;;1.15;1.10;;;19.90;66.80;;;;;;4963104;28;95888;-57
2021/07/02 04:54:20;;;;;;;2.00;1.40;;;19.90;66.80;;;;;;4960062;28;101080;-57
2021/07/02 04:56:51;;;;;;;2.40;1.40;;;19.80;67.30;;;;;;4964505;28;95607;-54
2021/07/02 04:59:27;;;;;;;1.15;1.02;;;19.80;67.00;;;;;;4961537;28;95913;-56
2021/07/02 05:02:00;;;;;;;1.20;1.10;;;19.70;67.20;;;;;;4955954;28;96983;-57
2021/07/02 05:04:31;;;;;;;1.50;1.40;;;19.50;67.80;;;;;;4963366;28;95949;-53
2021/07/02 05:07:03;;;;;;;2.72;1.40;;;19.40;68.30;;;;;;4957982;28;97007;-57
2021/07/02 05:09:35;;;;;;;1.15;1.10;;;19.20;68.70;;;;;;4962267;28;96545;-51
2021/07/02 05:12:08;;;;;;;1.25;1.10;;;19.10;69.20;;;;;;4957680;28;95887;-56
2021/07/02 05:14:40;;;;;;;1.48;1.38;;;19.00;69.50;;;;;;4948852;28;99581;-56
2021/07/02 05:17:12;;;;;;;1.05;0.98;;;18.90;69.90;;;;;;4952002;28;96382;-56
2021/07/02 05:19:42;;;;;;;;;;;18.80;70.50;;;;;;4960350;28;95821;-54
2021/07/02 05:22:17;;;;;;;1.93;1.73;;;18.90;70.50;;;;;;4960211;28;97321;-56
2021/07/02 05:24:49;;;;;;;1.38;1.20;;;18.80;70.70;;;;;;4963211;28;95264;-55
2021/07/02 05:27:20;;;;;;;2.58;1.50;;;18.80;70.90;;;;;;4961307;28;95857;-56
2021/07/02 05:29:51;;;;;;;2.38;1.52;;;18.80;71.20;;;;;;4960943;28;96029;-53
2021/07/02 05:32:23;;;;;;;2.30;1.77;;;18.70;71.30;;;;;;4953125;28;95935;-56
2021/07/02 05:35:09;;;;;;;2.95;2.65;;;18.70;71.50;;;;;;4959606;28;96678;-55
2021/07/02 05:37:42;;;;;;;1.23;1.02;;;18.70;71.30;;;;;;4960112;28;96050;-55
2021/07/02 05:40:16;;;;;;;1.20;1.10;;;18.80;71.10;;;;;;4960939;28;96388;-56
2021/07/02 05:42:47;;;;;;;1.58;1.23;;;18.80;71.40;;;;;;4959357;28;95850;-55
2021/07/02 05:45:19;;;;;;;2.85;1.30;;;18.80;71.70;;;;;;4958644;28;99860;-54
2021/07/02 05:47:51;;;;;;;1.15;1.13;;;18.70;71.80;;;;;;4960788;28;95864;-56
2021/07/02 05:50:23;;;;;;;4.63;1.70;;;18.80;71.80;;;;;;4959456;28;96705;-58
2021/07/02 05:52:57;;;;;;;2.60;1.25;;;18.80;71.60;;;;;;4956433;28;95811;-57
2021/07/02 05:55:28;;;;;;;1.48;1.25;;;18.70;72.60;;;;;;4962789;28;96700;-55
2021/07/02 05:57:58;;;;;;;2.58;1.33;;;18.70;71.80;;;;;;4960829;28;95946;-56
2021/07/02 06:00:29;;;;;;;1.25;1.05;;;18.80;72.10;;;;;;4958325;28;96425;-54
2021/07/02 06:03:00;;;;;;;1.25;1.15;;;18.70;71.90;;;;;;4958703;28;103510;-56
2021/07/02 06:05:31;;;;;;;1.10;1.10;;;18.70;71.80;;;;;;4960956;28;95966;-56
2021/07/02 06:08:05;;;;;;;1.20;1.10;;;18.70;71.70;;;;;;4955674;28;96791;-58
2021/07/02 06:10:35;;;;;;;1.48;1.23;;;18.70;71.80;;;;;;4960529;28;96560;-57
2021/07/02 06:13:07;;;;;;;1.27;1.20;;;18.70;71.90;;;;;;4952550;28;95506;-58
2021/07/02 06:15:38;;;;;;;1.60;1.33;;;18.70;71.90;;;;;;4950627;28;98928;-56
2021/07/02 06:18:11;;;;;;;1.50;1.10;;;18.70;72.00;;;;;;4959993;28;95568;-56
2021/07/02 06:20:42;;;;;;;2.10;1.10;;;18.60;71.90;;;;;;4962048;28;96837;-56
2021/07/02 06:23:12;;;;;;;2.93;1.33;;;18.60;72.50;;;;;;4956392;28;99967;-57
2021/07/02 06:25:42;;;;;;;1.00;1.00;;;18.60;72.00;;;;;;4957574;28;98185;-58
2021/07/02 06:28:14;;;;;;;;;;;18.60;72.00;;;;;;4960669;28;95320;-57
2021/07/02 06:30:46;;;;;;;1.30;1.20;;;18.60;72.00;;;;;;4959372;28;96855;-56
2021/07/02 06:33:17;;;;;;;6.53;1.65;;;18.50;72.20;;;;;;4959493;28;95630;-57
2021/07/02 06:35:48;;;;;;;1.30;1.20;;;18.50;72.40;;;;;;4962170;28;96717;-57
2021/07/02 06:38:20;;;;;;;3.80;1.63;;;18.60;72.50;;;;;;4958793;28;95682;-57
2021/07/02 06:40:52;;;;;;;2.10;1.35;;;18.60;72.60;;;;;;4956849;28;95914;-47
2021/07/02 06:43:23;;;;;;;2.03;1.30;;;18.50;72.80;;;;;;4959055;28;96256;-58
2021/07/02 06:45:53;;;;;;;2.20;1.10;;;18.50;73.00;;;;;;4955789;28;95712;-56
2021/07/02 06:48:23;;;;;;;2.45;1.33;;;18.50;72.80;;;;;;4962549;28;95759;-58
2021/07/02 06:50:56;;;;;;;2.78;1.50;;;18.50;72.50;;;;;;4960255;28;102458;-58
2021/07/02 06:53:28;;;;;;;1.05;1.02;;;18.50;72.80;;;;;;4960376;28;95406;-56
2021/07/02 06:55:57;;;;;;;1.98;1.10;;;18.50;72.90;;;;;;4958221;28;102685;-57
2021/07/02 06:58:27;;;;;;;2.03;1.08;;;18.50;72.70;;;;;;4954845;28;95861;-59
2021/07/02 07:00:59;;;;;;;1.83;1.65;;;18.50;73.00;;;;;;4953268;28;95923;-55
2021/07/02 07:03:31;;;;;;;1.45;1.10;;;18.40;73.10;;;;;;4961246;28;96270;-57
2021/07/02 07:06:01;;;;;;;1.60;1.50;;;18.40;73.00;;;;;;4959332;28;95993;-56
2021/07/02 07:08:33;;;;;;;1.30;1.20;;;18.40;73.20;;;;;;4964155;28;96728;-57
2021/07/02 07:11:03;;;;;;;2.53;1.15;;;18.30;73.20;;;;;;4960815;28;96407;-57
2021/07/02 07:13:36;;;;;;;3.78;1.20;;;18.20;73.50;;;;;;4950571;28;97366;-59
2021/07/02 07:16:09;;;;;;;1.27;1.05;;;18.20;73.60;;;;;;4952806;28;95731;-58
2021/07/02 07:18:40;;;;;;;0.98;0.98;;;18.20;73.50;;;;;;4965092;28;96101;-57
2021/07/02 07:21:11;;;;;;;2.10;1.10;;;18.30;73.50;;;;;;4961414;28;95791;-58
2021/07/02 07:23:43;;;;;;;2.45;1.10;;;18.30;73.50;;;;;;4963760;28;95924;-56
2021/07/02 07:26:14;;;;;;;1.02;0.90;;;18.30;73.40;;;;;;4961772;28;95829;-57
2021/07/02 07:28:45;;;;;;;1.77;1.10;;;18.30;73.30;;;;;;4964597;28;95948;-58
2021/07/02 07:31:16;;;;;;;2.13;1.30;;;18.20;73.50;;;;;;4956662;28;96422;-57
2021/07/02 07:33:49;;;;;;;1.48;1.33;;;18.20;74.00;;;;;;4964066;28;96245;-58
2021/07/02 07:36:22;;;;;;;3.65;1.30;;;18.20;73.90;;;;;;4961865;28;97318;-51
2021/07/02 07:38:55;;;;;;;3.63;1.08;;;18.20;73.80;;;;;;4965188;28;95821;-58
2021/07/02 07:41:26;;;;;;;;;;;18.10;73.90;;;;;;4961630;28;95986;-59
2021/07/02 07:44:00;;;;;;;5.10;1.33;;;18.10;74.00;;;;;;4946545;28;96779;-58
2021/07/02 07:46:31;;;;;;;11.27;1.45;;;18.10;74.00;;;;;;4949891;28;96081;-57
2021/07/02 07:49:02;;;;;;;2.58;1.15;;;18.20;74.00;;;;;;4961245;28;95323;-57
2021/07/02 07:51:43;;;;;;;;;;;18.30;73.60;;;;;;4960204;28;96029;-53
2021/07/02 07:54:13;;;;;;;2.50;1.33;;;18.30;73.40;;;;;;4965634;28;95989;-58
2021/07/02 07:56:53;;;;;;;2.45;1.25;;;18.40;73.20;;;;;;4961384;28;99736;-55
2021/07/02 07:59:28;;;;;;;1.15;0.90;;;18.30;72.90;;;;;;4964353;28;96210;-60
2021/07/02 08:01:59;;;;;;;1.23;1.02;;;18.40;72.90;;;;;;4952112;28;95964;-58
2021/07/02 08:04:31;;;;;;;;;;;18.40;72.80;;;;;;4961302;28;96108;-52
2021/07/02 08:07:02;;;;;;;0.77;0.77;;;18.40;72.70;;;;;;4962832;28;96183;-59
2021/07/02 08:09:34;;;;;;;3.17;0.90;;;18.40;72.70;;;;;;4964622;28;96000;-58
2021/07/02 08:12:06;;;;;;;1.00;0.90;;;18.40;72.60;;;;;;4959649;28;96444;-52
2021/07/02 08:14:38;;;;;;;1.25;1.10;;;18.40;72.60;;;;;;4952470;28;95987;-57
2021/07/02 08:17:09;;;;;;;;;;;18.40;72.50;;;;;;4956617;28;96011;-50
2021/07/02 08:19:40;;;;;;;0.90;0.77;;;18.30;72.40;;;;;;4960948;28;95906;-57
2021/07/02 08:22:11;;;;;;;0.95;0.95;;;18.30;72.40;;;;;;4963417;28;96521;-55
2021/07/02 08:24:41;;;;;;;1.92;0.80;;;18.30;72.30;;;;;;4964379;28;95991;-52
2021/07/02 08:27:12;;;;;;;1.30;1.20;;;18.30;72.30;;;;;;4963914;28;95940;-57
2021/07/02 08:29:44;;;;;;;1.40;1.10;;;18.30;72.20;;;;;;4962079;28;95726;-53
2021/07/02 08:32:15;;;;;;;1.27;1.02;;;18.30;72.20;;;;;;4959939;28;98571;-54
2021/07/02 08:34:46;;;;;;;1.27;1.00;;;18.30;72.30;;;;;;4957735;28;96516;-52
2021/07/02 08:37:17;;;;;;;;;;;18.30;72.80;;;;;;4959371;28;95922;-53
2021/07/02 08:39:48;;;;;;;1.77;1.30;;;18.40;71.70;;;;;;4962112;28;102605;-54
2021/07/02 08:42:19;;;;;;;1.33;1.23;;;18.50;70.90;;;;;;4962801;28;95938;-53
2021/07/02 08:44:52;;;;;;;1.47;1.30;;;18.40;70.90;;;;;;4960178;28;95662;-58
2021/07/02 08:47:24;;;;;;;1.40;1.30;;;18.40;71.10;;;;;;4957296;28;95731;-51
2021/07/02 08:49:56;;;;;;;1.50;1.20;;;18.30;71.10;;;;;;4961390;28;96311;-53
2021/07/02 08:52:26;;;;;;;2.42;1.45;;;18.30;71.30;;;;;;4957610;28;95867;-52
2021/07/02 08:54:57;;;;;;;2.15;1.45;;;18.30;71.40;;;;;;4958470;28;95842;-53
2021/07/02 08:57:27;;;;;;;1.10;1.00;;;18.30;71.40;;;;;;4964356;28;95854;-50
2021/07/02 09:00:01;;;;;;;1.55;1.45;;;18.30;71.40;;;;;;4959671;28;102573;-51
2021/07/02 09:02:38;;;;;;;2.20;1.70;;;18.30;71.20;;;;;;4962646;28;95871;-52
2021/07/02 09:05:38;;;;;;;2.95;1.60;;;18.40;70.70;;;;;;4959984;28;95791;-52
2021/07/02 09:08:17;;;;;;;1.52;1.40;;;18.30;70.40;;;;;;4959783;28;95887;-53
2021/07/02 09:10:50;;;;;;;2.75;1.60;;;18.30;70.50;;;;;;4956125;28;95913;-51
2021/07/02 09:13:40;;;;;;;2.35;1.83;;;18.30;70.70;;;;;;4953559;28;95925;-57
2021/07/02 09:16:21;;;;;;;1.80;1.70;;;18.20;70.80;;;;;;4951461;28;95996;-50
2021/07/02 09:18:55;;;;;;;1.85;1.50;;;18.20;70.90;;;;;;4963522;28;95750;-51
2021/07/02 09:21:31;;;;;;;1.73;1.60;;;18.20;71.00;;;;;;4960351;28;97582;-52
2021/07/02 09:24:01;;;;;;;1.92;1.42;;;18.20;71.00;;;;;;4960019;28;95838;-49
2021/07/02 09:26:43;;;;;;;1.90;1.70;;;18.20;71.00;;;;;;4955068;28;95984;-50
2021/07/02 09:29:23;;;;;;;2.40;1.42;;;18.20;71.00;;;;;;4963524;28;95926;-50
2021/07/02 09:32:03;;;;;;;1.55;1.23;;;18.20;71.00;;;;;;4955830;28;95768;-58
2021/07/02 09:34:53;;;;;;;1.40;1.27;;;18.10;71.00;;;;;;4963896;28;95923;-51
2021/07/02 09:37:34;;;;;;;1.50;1.38;;;18.10;71.10;;;;;;4961359;28;96214;-50
2021/07/02 09:40:30;;;;;;;1.35;1.25;;;18.10;71.10;;;;;;4961610;28;95689;-54
2021/07/02 09:43:14;;;;;;;1.50;1.40;;;18.10;71.10;;;;;;4958743;28;95812;-50
2021/07/02 09:45:48;;;;;;;1.25;1.15;;;18.00;71.00;;;;;;4954950;28;96311;-49
2021/07/02 09:48:24;;;;;;;1.40;1.30;;;18.00;71.10;;;;;;4962574;28;96954;-49
2021/07/02 09:51:00;;;;;;;2.47;1.73;;;18.00;71.10;;;;;;4958669;28;95897;-49
2021/07/02 09:53:34;;;;;;;1.70;1.60;;;18.00;71.10;;;;;;4959358;28;95610;-51
2021/07/02 09:56:18;;;;;;;2.00;1.40;;;17.90;71.40;;;;;;4956199;28;95977;-51
2021/07/02 09:58:48;;;;;;;2.15;1.40;;;17.80;72.60;;;;;;4966045;28;96133;-49
2021/07/02 10:01:31;;;;;;;1.10;1.00;;;17.60;72.20;;;;;;4956797;28;95758;-49
2021/07/02 10:04:11;;;;;;;1.40;1.30;;;17.60;72.40;;;;;;4967267;28;95827;-50
2021/07/02 10:06:42;;;;;;;1.38;1.15;;;17.50;72.50;;;;;;4961875;28;95840;-52
2021/07/02 10:09:14;;;;;;;1.33;1.23;;;17.50;72.60;;;;;;4966651;28;95768;-50
2021/07/02 10:11:48;;;;;;;1.48;1.10;;;17.50;72.70;;;;;;4960485;28;95813;-54
2021/07/02 10:14:20;;;;;;;1.90;1.70;;;17.40;72.80;;;;;;4951735;28;95955;-51
2021/07/02 10:16:52;;;;;;;3.30;1.80;;;17.40;72.70;;;;;;4956431;28;98147;-51
2021/07/02 10:19:24;;;;;;;1.65;1.27;;;17.40;72.80;;;;;;4964417;28;95870;-49
2021/07/02 10:21:54;;;;;;;1.63;1.23;;;17.40;72.90;;;;;;4962438;28;96016;-49
2021/07/02 10:24:24;;;;;;;1.40;1.30;;;17.30;72.90;;;;;;4965232;28;95713;-49
2021/07/02 10:26:55;;;;;;;1.35;1.20;;;17.30;72.90;;;;;;4964479;28;95841;-50
2021/07/02 10:29:28;;;;;;;;;;;17.30;73.00;;;;;;4962756;28;95812;-50
2021/07/02 10:31:58;;;;;;;1.25;1.08;;;17.30;73.10;;;;;;4958830;28;95504;-49
2021/07/02 10:34:30;;;;;;;1.38;1.20;;;17.30;73.10;;;;;;4959165;28;95936;-49
2021/07/02 10:37:03;;;;;;;1.25;1.15;;;17.20;73.10;;;;;;4963164;28;96958;-52
2021/07/02 10:39:36;;;;;;;1.52;1.42;;;17.20;73.10;;;;;;4960585;28;96280;-52
2021/07/02 10:42:11;;;;;;;1.20;1.10;;;17.20;73.10;;;;;;4966439;28;95848;-48
2021/07/02 10:44:56;;;;;;;2.03;1.30;;;17.20;73.10;;;;;;4963158;28;96142;-49
2021/07/02 10:47:49;;;;;;;1.38;1.10;;;17.10;73.10;;;;;;4958380;28;96458;-48
2021/07/02 10:50:41;;;;;;;1.10;1.00;;;17.20;73.10;;;;;;4962092;28;95927;-51
2021/07/02 10:53:42;;;;;;;1.70;1.05;;;17.10;73.20;;;;;;4960683;28;95285;-51
2021/07/02 10:56:43;;;;;;;1.30;1.20;;;17.10;73.30;;;;;;4953498;28;95719;-52
2021/07/02 10:59:14;;;;;;;1.38;1.27;;;17.10;73.20;;;;;;4978099;28;99267;-50
2021/07/02 11:02:07;;;;;;;1.45;1.27;;;17.00;73.30;;;;;;4960946;28;98752;-48
2021/07/02 11:04:44;;;;;;;1.45;1.17;;;17.00;73.30;;;;;;4954651;28;95759;-50
2021/07/02 11:07:14;;;;;;;1.20;1.10;;;17.00;73.30;;;;;;4958300;28;95896;-52
2021/07/02 11:09:57;;;;;;;1.33;1.23;;;17.00;73.30;;;;;;4960242;28;96827;-50
2021/07/02 11:12:30;;;;;;;1.38;1.27;;;16.90;73.30;;;;;;4962402;28;95937;-50
2021/07/02 11:15:02;;;;;;;1.20;1.10;;;16.90;73.30;;;;;;4950168;28;95977;-49
2021/07/02 11:17:43;;;;;;;1.13;1.02;;;16.90;73.40;;;;;;4965137;28;95338;-48
2021/07/02 11:20:14;;;;;;;2.03;1.15;;;16.90;73.40;;;;;;4963187;28;95997;-49
2021/07/02 11:23:12;;;;;;;1.15;1.00;;;16.90;73.40;;;;;;4960208;28;95982;-49
2021/07/02 11:25:56;;;;;;;1.30;1.20;;;16.80;73.40;;;;;;4960645;28;95840;-53
2021/07/02 11:28:40;;;;;;;1.77;1.67;;;16.80;74.20;;;;;;4958790;28;95474;-50
2021/07/02 11:31:12;;;;;;;1.23;1.13;;;16.80;73.50;;;;;;4959712;28;95879;-50
2021/07/02 11:33:45;;;;;;;1.05;1.02;;;16.80;73.50;;;;;;4967563;28;96143;-50
2021/07/02 11:36:19;;;;;;;1.10;1.00;;;16.80;73.50;;;;;;4962478;28;95962;-50
2021/07/02 11:38:55;;;;;;;0.95;0.95;;;16.80;73.60;;;;;;4958173;28;95883;-49
2021/07/02 11:41:31;;;;;;;0.98;0.90;;;16.70;73.60;;;;;;4952575;28;95929;-49
2021/07/02 11:44:08;;;;;;;1.65;1.33;;;16.70;73.40;;;;;;4982745;28;95694;-50
2021/07/02 11:46:41;;;;;;;1.00;1.00;;;16.70;73.50;;;;;;4957670;28;96038;-49
2021/07/02 11:49:14;;;;;;;0.70;0.70;;;16.70;73.50;;;;;;4968597;28;95622;-50
2021/07/02 11:51:48;;;;;;;1.20;1.05;;;16.70;73.60;;;;;;4966193;28;95835;-49
2021/07/02 11:54:20;;;;;;;0.90;0.90;;;16.60;73.50;;;;;;4968777;28;95865;-48
2021/07/02 11:56:54;;;;;;;1.25;1.15;;;16.60;73.50;;;;;;4962147;28;95786;-49
2021/07/02 11:59:24;;;;;;;1.40;1.30;;;16.60;73.60;;;;;;4968265;28;95479;-48
2021/07/02 12:01:57;;;;;;;1.02;1.00;;;16.60;73.70;;;;;;4963090;28;95900;-48
2021/07/02 12:04:33;;;;;;;1.08;0.98;;;16.50;73.60;;;;;;4956230;28;95967;-58
2021/07/02 12:07:08;;;;;;;1.33;1.10;;;16.50;73.50;;;;;;4953537;28;95694;-49
2021/07/02 12:09:43;;;;;;;1.60;1.05;;;16.50;73.70;;;;;;4965673;28;95618;-52
2021/07/02 12:12:21;;;;;;;1.15;1.02;;;16.50;73.60;;;;;;4955886;28;96525;-49
2021/07/02 12:14:52;;;;;;;1.40;1.10;;;16.50;73.70;;;;;;4960377;28;96132;-49
2021/07/02 12:17:24;;;;;;;2.08;1.20;;;16.50;73.80;;;;;;4952816;28;95956;-49
2021/07/02 12:19:54;;;;;;;;;;;16.50;73.80;;;;;;4969122;28;95884;-47
2021/07/02 12:22:24;;;;;;;1.70;1.20;;;16.40;73.90;;;;;;4951603;28;95820;-51
2021/07/02 12:24:54;;;;;;;1.33;1.23;;;16.40;73.80;;;;;;4956278;28;96550;-49
2021/07/02 12:27:28;;;;;;;1.77;1.05;;;16.40;73.90;;;;;;4959883;28;96011;-52
2021/07/02 12:30:01;;;;;;;1.20;1.05;;;16.40;74.00;;;;;;4959616;28;95775;-50
2021/07/02 12:32:35;;;;;;;1.42;1.30;;;16.40;74.00;;;;;;4960730;28;95847;-48
2021/07/02 12:35:09;;;;;;;1.58;1.17;;;16.40;74.00;;;;;;4968975;28;96068;-48
2021/07/02 12:37:41;;;;;;;0.93;0.90;;;16.30;73.90;;;;;;4963713;28;100914;-49
2021/07/02 12:40:13;;;;;;;1.13;1.08;;;16.30;74.00;;;;;;4967408;28;95287;-48
2021/07/02 12:42:46;;;;;;;0.75;0.75;;;16.30;74.00;;;;;;4965694;28;96745;-47
2021/07/02 12:45:21;;;;;;;0.95;0.95;;;16.30;74.00;;;;;;4948203;28;96173;-50
2021/07/02 12:47:51;;;;;;;0.80;0.80;;;16.30;74.00;;;;;;4965658;28;95912;-48
2021/07/02 12:50:26;;;;;;;1.90;1.08;;;16.30;74.00;;;;;;4949113;28;95327;-49
2021/07/02 12:55:48;;;;;;;1.58;1.17;;;16.20;74.00;;;;;;4962254;28;96014;-48
2021/07/02 12:58:18;;;;;;;0.73;0.73;;;16.20;74.00;;;;;;4956334;28;96137;-49
2021/07/02 13:00:48;;;;;;;1.10;0.90;;;16.20;74.00;;;;;;4959418;28;95815;-49
2021/07/02 13:03:20;;;;;;;1.13;1.02;;;16.20;74.00;;;;;;4957953;28;95868;-57
2021/07/02 13:05:51;;;;;;;1.10;0.98;;;16.10;74.00;;;;;;4965919;28;95768;-50
2021/07/02 13:08:33;;;;;;;0.60;0.60;;;16.20;74.00;;;;;;4963363;28;95823;-52
2021/07/02 13:11:18;;;;;;;0.85;0.85;;;16.10;74.00;;;;;;4967779;28;95682;-49
2021/07/02 13:13:49;;;;;;;1.35;0.90;;;16.10;74.00;;;;;;4954783;28;96608;-52
2021/07/02 13:16:23;;;;;;;1.02;1.00;;;16.10;74.10;;;;;;4958525;28;95987;-50
2021/07/02 13:18:56;;;;;;;1.17;1.10;;;16.10;74.20;;;;;;4951032;28;102257;-48
2021/07/02 13:21:29;;;;;;;0.93;0.93;;;16.10;74.10;;;;;;4964273;28;95802;-51
2021/07/02 13:24:01;;;;;;;1.25;1.00;;;16.00;74.10;;;;;;4959885;28;95824;-48